Time;durP1;ratioP1;P1;durP2;ratioP2;P2;SDS_P1;SDS_P2;PMS_P1;PMS_P2;Temp;Humidity;BMP_temperature;BMP_pressure;BME280_temperature;BME280_humidity;BME280_pressure;Samples;Min_cycle;Max_cycle;Signal;HPM_P1;HPM_P2
2023/08/30 00:01:35;;;;;;;24.60;23.67;;;14.50;99.90;;;;;;5134430;28;20205;-65
2023/08/30 00:04:01;;;;;;;22.13;21.23;;;14.50;99.90;;;;;;5118019;28;20213;-64
2023/08/30 00:06:28;;;;;;;21.33;20.63;;;14.50;99.90;;;;;;5113744;28;20233;-63
2023/08/30 00:08:56;;;;;;;20.23;19.53;;;14.60;99.90;;;;;;5113526;28;20222;-65
2023/08/30 00:11:23;;;;;;;21.83;21.03;;;14.60;99.90;;;;;;5113195;28;20206;-65
2023/08/30 00:13:51;;;;;;;22.00;21.20;;;14.70;99.90;;;;;;5113228;28;20202;-65
2023/08/30 00:16:18;;;;;;;22.43;21.63;;;14.80;99.90;;;;;;5113222;28;20288;-65
2023/08/30 00:18:45;;;;;;;22.60;21.80;;;14.70;99.90;;;;;;5112976;28;20287;-63
2023/08/30 00:21:12;;;;;;;20.77;20.07;;;14.70;99.90;;;;;;5112666;28;20339;-64
2023/08/30 00:23:39;;;;;;;20.97;20.20;;;14.80;99.90;;;;;;5112933;28;20208;-62
2023/08/30 00:26:05;;;;;;;18.93;18.30;;;14.70;99.90;;;;;;5112896;28;20252;-66
2023/08/30 00:28:32;;;;;;;29.47;28.37;;;14.70;99.90;;;;;;5112719;28;20684;-64
2023/08/30 00:31:01;;;;;;;22.73;21.83;;;14.70;99.90;;;;;;5112538;28;20620;-65
2023/08/30 00:33:28;;;;;;;19.47;18.70;;;14.80;99.90;;;;;;5112710;28;20208;-63
2023/08/30 00:35:58;;;;;;;22.33;21.53;;;14.60;99.90;;;;;;5112832;28;20576;-65
2023/08/30 00:38:27;;;;;;;19.87;19.17;;;14.60;99.90;;;;;;5113451;28;20228;-63
2023/08/30 00:40:54;;;;;;;20.07;19.37;;;14.70;99.90;;;;;;5113614;28;20201;-62
2023/08/30 00:43:21;;;;;;;22.50;21.70;;;14.70;99.90;;;;;;5115380;28;20198;-63
2023/08/30 00:45:49;;;;;;;20.60;19.90;;;14.60;99.90;;;;;;5113203;28;20206;-62
2023/08/30 00:48:20;;;;;;;19.80;19.07;;;14.70;99.90;;;;;;5112663;28;20217;-64
2023/08/30 00:50:47;;;;;;;21.03;20.33;;;14.70;99.90;;;;;;5112277;28;20202;-64
2023/08/30 00:53:15;;;;;;;20.13;19.47;;;14.70;99.90;;;;;;5112455;28;20322;-63
2023/08/30 00:55:43;;;;;;;21.10;20.37;;;14.80;99.90;;;;;;5112540;28;20571;-62
2023/08/30 00:58:11;;;;;;;19.13;18.50;;;14.80;99.90;;;;;;5107798;27;20228;-62
2023/08/30 01:00:38;;;;;;;15.53;15.00;;;14.70;99.90;;;;;;5110681;28;20231;-63
2023/08/30 01:03:06;;;;;;;19.57;18.87;;;14.80;99.90;;;;;;5106969;28;20194;-63
2023/08/30 01:05:35;;;;;;;20.17;19.47;;;14.80;99.90;;;;;;5111801;27;20209;-65
2023/08/30 01:08:02;;;;;;;19.23;18.53;;;14.90;99.90;;;;;;5132047;27;20590;-65
2023/08/30 01:10:48;;;;;;;19.07;18.40;;;14.80;99.90;;;;;;5131847;27;20221;-65
2023/08/30 01:13:19;;;;;;;18.43;17.80;;;14.90;99.90;;;;;;5132427;27;20289;-64
2023/08/30 01:15:48;;;;;;;16.17;15.60;;;14.90;99.90;;;;;;5126614;27;20555;-65
2023/08/30 01:18:18;;;;;;;18.57;17.93;;;14.90;99.90;;;;;;5113068;28;20238;-65
2023/08/30 01:20:48;;;;;;;16.20;15.63;;;14.90;99.90;;;;;;5113768;28;20208;-64
2023/08/30 01:23:25;;;;;;;17.20;16.63;;;14.90;99.90;;;;;;5112076;28;20221;-64
2023/08/30 01:25:58;;;;;;;16.17;15.57;;;14.90;99.90;;;;;;5112271;28;20206;-64
2023/08/30 01:28:29;;;;;;;19.50;18.83;;;14.90;99.90;;;;;;5111913;28;20225;-64
2023/08/30 01:30:58;;;;;;;17.43;16.87;;;15.00;99.90;;;;;;5110923;28;20244;-64
2023/08/30 01:33:27;;;;;;;18.57;17.83;;;14.90;99.90;;;;;;5111668;28;20846;-65
2023/08/30 01:35:55;;;;;;;19.90;19.13;;;14.90;99.90;;;;;;5111158;28;20251;-61
2023/08/30 01:38:24;;;;;;;17.70;17.07;;;14.80;99.90;;;;;;5113112;28;20236;-64
2023/08/30 01:40:52;;;;;;;22.27;21.50;;;14.80;99.90;;;;;;5113471;28;20233;-65
2023/08/30 01:43:20;;;;;;;22.70;21.93;;;14.80;99.90;;;;;;5111790;28;20206;-64
2023/08/30 01:45:48;;;;;;;18.07;17.47;;;14.70;99.90;;;;;;5111599;28;20213;-63
2023/08/30 01:48:17;;;;;;;18.43;17.80;;;14.70;99.90;;;;;;5112320;28;20225;-63
2023/08/30 01:50:45;;;;;;;19.30;18.63;;;14.70;99.90;;;;;;5114354;28;20228;-64
2023/08/30 01:53:13;;;;;;;19.73;19.07;;;14.70;99.90;;;;;;5114922;28;20213;-64
2023/08/30 01:55:40;;;;;;;21.27;20.53;;;14.80;99.90;;;;;;5115814;28;20205;-63
2023/08/30 01:58:08;;;;;;;19.20;18.50;;;14.80;99.90;;;;;;5116885;28;20312;-63
2023/08/30 02:00:35;;;;;;;22.33;21.53;;;14.80;99.90;;;;;;5115816;28;20205;-65
2023/08/30 02:03:10;;;;;;;19.43;18.77;;;14.70;99.90;;;;;;5113046;28;20212;-63
2023/08/30 02:05:46;;;;;;;20.03;19.33;;;14.70;99.90;;;;;;5112442;28;20588;-64
2023/08/30 02:08:17;;;;;;;19.67;19.00;;;14.70;99.90;;;;;;5112326;28;20235;-64
2023/08/30 02:10:52;;;;;;;20.20;19.50;;;14.70;99.90;;;;;;5118803;28;20316;-64
2023/08/30 02:13:26;;;;;;;21.43;20.63;;;14.70;99.90;;;;;;5114530;28;20246;-64
2023/08/30 02:15:55;;;;;;;17.57;16.97;;;14.60;99.90;;;;;;5114797;28;20257;-64
2023/08/30 02:18:23;;;;;;;19.30;18.63;;;14.70;99.90;;;;;;5117497;22;20317;-67
2023/08/30 02:20:50;;;;;;;22.87;22.03;;;14.70;99.90;;;;;;5092397;28;20209;-66
2023/08/30 02:23:17;;;;;;;25.03;24.13;;;14.70;99.90;;;;;;5094940;28;20297;-67
2023/08/30 02:25:44;;;;;;;21.10;20.37;;;14.70;99.90;;;;;;5095026;28;20199;-64
2023/08/30 02:28:11;;;;;;;17.80;17.20;;;14.70;99.90;;;;;;5094672;28;20233;-67
2023/08/30 02:30:37;;;;;;;19.27;18.60;;;14.60;99.90;;;;;;5094783;28;20603;-65
2023/08/30 02:33:04;;;;;;;20.13;19.47;;;14.60;99.90;;;;;;5085133;28;20207;-64
2023/08/30 02:35:33;;;;;;;16.63;16.03;;;14.70;99.90;;;;;;5074543;28;20218;-64
2023/08/30 02:37:59;;;;;;;18.17;17.57;;;14.70;99.90;;;;;;5074445;28;20710;-65
2023/08/30 02:40:26;;;;;;;16.03;15.50;;;14.70;99.90;;;;;;5074566;28;20195;-65
2023/08/30 02:42:53;;;;;;;21.20;20.47;;;14.70;99.90;;;;;;5074205;28;20199;-64
2023/08/30 02:45:20;;;;;;;18.27;17.60;;;14.70;99.90;;;;;;5079026;28;20207;-66
2023/08/30 02:47:47;;;;;;;19.57;18.90;;;14.70;99.90;;;;;;5081276;28;20223;-67
2023/08/30 02:50:13;;;;;;;20.70;20.00;;;14.70;99.90;;;;;;5074886;28;20215;-66
2023/08/30 02:52:41;;;;;;;19.90;19.23;;;14.60;99.90;;;;;;5074369;28;20207;-65
2023/08/30 02:55:08;;;;;;;21.07;20.37;;;14.70;99.90;;;;;;5073174;28;20697;-65
2023/08/30 02:57:34;;;;;;;20.77;20.03;;;14.70;99.90;;;;;;5076631;28;20316;-67
2023/08/30 03:00:05;;;;;;;21.53;20.77;;;14.70;99.90;;;;;;5084787;28;20198;-65
2023/08/30 03:02:32;;;;;;;18.57;17.90;;;14.70;99.90;;;;;;5073790;28;20686;-66
2023/08/30 03:04:59;;;;;;;18.00;17.37;;;14.60;99.90;;;;;;5073764;28;20656;-65
2023/08/30 03:07:26;;;;;;;19.03;18.37;;;14.60;99.90;;;;;;5074311;28;20223;-68
2023/08/30 03:09:55;;;;;;;19.03;18.37;;;14.60;99.90;;;;;;5074134;28;20227;-66
2023/08/30 03:12:22;;;;;;;18.33;17.70;;;14.70;99.90;;;;;;5072441;28;20203;-65
2023/08/30 03:14:49;;;;;;;17.00;16.40;;;14.70;99.90;;;;;;5080908;28;20589;-66
2023/08/30 03:17:15;;;;;;;16.77;16.17;;;14.70;99.90;;;;;;5086624;28;20241;-65
2023/08/30 03:19:42;;;;;;;18.07;17.47;;;14.80;99.90;;;;;;5071856;28;20192;-65
2023/08/30 03:22:09;;;;;;;17.23;16.63;;;14.80;99.90;;;;;;5077427;28;20681;-67
2023/08/30 03:24:36;;;;;;;18.23;17.60;;;14.80;99.90;;;;;;5089409;28;20204;-65
2023/08/30 03:27:04;;;;;;;19.17;18.50;;;14.70;99.90;;;;;;5093585;28;20572;-66
2023/08/30 03:29:31;;;;;;;19.33;18.67;;;14.70;99.90;;;;;;5093617;28;20219;-64
2023/08/30 03:31:58;;;;;;;16.17;15.63;;;14.70;99.90;;;;;;5083612;28;20577;-66
2023/08/30 03:34:24;;;;;;;17.10;16.50;;;14.70;99.90;;;;;;5072665;28;20217;-65
2023/08/30 03:36:54;;;;;;;17.43;16.83;;;14.70;99.90;;;;;;5073170;28;20233;-66
2023/08/30 03:39:21;;;;;;;16.40;15.87;;;14.70;99.90;;;;;;5073656;28;20203;-65
2023/08/30 03:41:47;;;;;;;16.47;15.87;;;14.80;99.90;;;;;;5073348;28;20211;-65
2023/08/30 03:44:16;;;;;;;22.13;21.37;;;14.80;99.90;;;;;;5073536;28;20214;-63
2023/08/30 03:46:42;;;;;;;16.53;15.97;;;14.80;99.90;;;;;;5073035;28;20559;-63
2023/08/30 03:49:09;;;;;;;17.30;16.73;;;14.70;99.90;;;;;;5072946;28;20212;-65
2023/08/30 03:51:36;;;;;;;16.47;15.90;;;14.70;99.90;;;;;;5072548;28;20229;-66
2023/08/30 03:54:03;;;;;;;16.43;15.87;;;14.70;99.90;;;;;;5075631;28;20608;-64
2023/08/30 03:56:30;;;;;;;16.80;16.23;;;14.70;99.90;;;;;;5090190;28;20207;-66
2023/08/30 03:58:57;;;;;;;18.30;17.67;;;14.70;99.90;;;;;;5082775;28;20298;-64
2023/08/30 04:01:25;;;;;;;15.97;15.43;;;14.70;99.90;;;;;;5074070;28;20202;-66
2023/08/30 04:03:52;;;;;;;15.27;14.73;;;14.70;99.90;;;;;;5073707;28;20206;-66
2023/08/30 04:06:18;;;;;;;15.83;15.30;;;14.70;99.90;;;;;;5075174;28;20675;-65
2023/08/30 04:08:45;;;;;;;15.93;15.40;;;14.70;99.90;;;;;;5073984;28;20237;-65
2023/08/30 04:11:12;;;;;;;16.73;16.17;;;14.80;99.90;;;;;;5073046;28;20230;-66
2023/08/30 04:13:39;;;;;;;18.20;17.57;;;14.80;99.90;;;;;;5073218;28;20308;-66
2023/08/30 04:16:06;;;;;;;19.00;18.33;;;14.80;99.90;;;;;;5077617;28;20203;-64
2023/08/30 04:18:34;;;;;;;16.17;15.57;;;14.90;99.90;;;;;;5074423;28;20280;-65
2023/08/30 04:21:02;;;;;;;17.30;16.70;;;14.80;99.90;;;;;;5074632;28;20214;-64
2023/08/30 04:23:29;;;;;;;17.20;16.60;;;14.80;99.90;;;;;;5074026;28;20212;-65
2023/08/30 04:25:56;;;;;;;15.93;15.37;;;14.80;99.90;;;;;;5073468;28;20301;-63
2023/08/30 04:28:23;;;;;;;14.87;14.37;;;14.80;99.90;;;;;;5073041;28;20243;-65
2023/08/30 04:30:50;;;;;;;20.43;19.70;;;14.80;99.90;;;;;;5073882;28;20223;-66
2023/08/30 04:33:16;;;;;;;18.30;17.63;;;14.70;99.90;;;;;;5073006;28;20211;-67
2023/08/30 04:35:45;;;;;;;17.80;17.20;;;14.80;99.90;;;;;;5073287;28;20235;-66
2023/08/30 04:38:11;;;;;;;16.00;15.47;;;14.80;99.90;;;;;;5072846;28;20249;-65
2023/08/30 04:40:38;;;;;;;14.90;14.40;;;14.80;99.90;;;;;;5072555;28;20213;-64
2023/08/30 04:43:05;;;;;;;17.47;16.90;;;14.80;99.90;;;;;;5071706;28;20214;-66
2023/08/30 04:45:32;;;;;;;15.23;14.73;;;14.80;99.90;;;;;;5072074;28;20374;-63
2023/08/30 04:47:59;;;;;;;17.13;16.53;;;14.90;99.90;;;;;;5076696;28;20227;-65
2023/08/30 04:50:26;;;;;;;16.57;16.00;;;14.80;99.90;;;;;;5087080;28;20573;-66
2023/08/30 04:52:54;;;;;;;17.50;16.90;;;14.80;99.90;;;;;;5092042;28;20210;-66
2023/08/30 04:55:20;;;;;;;19.07;18.33;;;14.80;99.90;;;;;;5092103;28;20205;-66
2023/08/30 04:57:47;;;;;;;17.90;17.27;;;14.80;99.90;;;;;;5087988;28;20591;-64
2023/08/30 05:00:15;;;;;;;15.93;15.40;;;14.80;99.90;;;;;;5084405;28;20267;-66
2023/08/30 05:02:43;;;;;;;17.27;16.67;;;14.80;99.90;;;;;;5071395;28;20322;-67
2023/08/30 05:05:10;;;;;;;15.33;14.77;;;14.80;99.90;;;;;;5071440;28;20204;-64
2023/08/30 05:07:37;;;;;;;16.23;15.67;;;14.80;99.90;;;;;;5071767;28;20223;-65
2023/08/30 05:10:06;;;;;;;16.80;16.20;;;14.80;99.90;;;;;;5071246;28;20225;-66
2023/08/30 05:12:35;;;;;;;16.40;15.80;;;14.90;99.90;;;;;;5071271;28;20211;-66
2023/08/30 05:15:02;;;;;;;17.33;16.73;;;14.90;99.90;;;;;;5071478;28;20206;-65
2023/08/30 05:17:29;;;;;;;16.17;15.63;;;15.00;99.90;;;;;;5071206;28;20239;-64
2023/08/30 05:19:56;;;;;;;15.10;14.60;;;15.00;99.90;;;;;;5071235;28;20199;-66
2023/08/30 05:22:23;;;;;;;13.57;13.13;;;15.00;99.90;;;;;;5070993;28;20967;-65
2023/08/30 05:24:49;;;;;;;14.60;14.10;;;15.10;99.90;;;;;;5071554;28;20322;-65
2023/08/30 05:27:18;;;;;;;16.37;15.80;;;15.10;99.90;;;;;;5085005;28;20238;-67
2023/08/30 05:29:44;;;;;;;15.43;14.93;;;15.10;99.90;;;;;;5086634;28;20233;-66
2023/08/30 05:32:11;;;;;;;14.57;14.07;;;15.10;99.90;;;;;;5086490;28;20219;-64
2023/08/30 05:34:38;;;;;;;14.93;14.43;;;15.30;99.90;;;;;;5058938;28;20244;-66
2023/08/30 05:37:05;;;;;;;15.77;15.23;;;15.10;99.90;;;;;;5080743;28;20233;-66
2023/08/30 05:39:32;;;;;;;16.10;15.53;;;15.10;99.90;;;;;;5071661;28;20564;-64
2023/08/30 05:41:58;;;;;;;15.50;14.95;;;15.10;99.90;;;;;;5074860;28;20208;-65
2023/08/30 05:44:26;;;;;;;14.83;14.33;;;15.30;99.90;;;;;;5076865;28;20201;-67
2023/08/30 05:46:53;;;;;;;15.83;15.30;;;15.30;99.90;;;;;;5078097;28;20246;-66
2023/08/30 05:49:20;;;;;;;16.13;15.57;;;15.10;99.90;;;;;;5086717;28;20221;-67
2023/08/30 05:51:47;;;;;;;17.27;16.67;;;15.10;99.90;;;;;;5076416;28;20222;-65
2023/08/30 05:54:14;;;;;;;18.47;17.77;;;15.10;99.90;;;;;;5084522;28;20195;-66
2023/08/30 05:56:41;;;;;;;18.13;17.53;;;15.00;99.90;;;;;;5092378;28;20205;-67
2023/08/30 05:59:08;;;;;;;16.03;15.50;;;15.00;99.90;;;;;;5093289;28;20213;-66
2023/08/30 06:01:36;;;;;;;20.33;19.60;;;15.00;99.90;;;;;;5095040;28;20203;-65
2023/08/30 06:04:05;;;;;;;15.77;15.23;;;15.00;99.90;;;;;;5104777;28;20314;-66
2023/08/30 06:06:32;;;;;;;15.53;15.03;;;15.10;99.90;;;;;;5076290;28;20618;-62
2023/08/30 06:08:59;;;;;;;15.50;14.93;;;15.20;99.90;;;;;;5103486;28;20262;-65
2023/08/30 06:11:26;;;;;;;11.97;11.57;;;15.30;99.90;;;;;;5063451;28;20231;-65
2023/08/30 06:13:53;;;;;;;16.40;15.83;;;15.30;99.90;;;;;;5050307;28;20193;-67
2023/08/30 06:16:20;;;;;;;15.50;15.00;;;15.30;99.90;;;;;;5050046;28;20207;-64
2023/08/30 06:18:48;;;;;;;15.50;14.98;;;15.30;99.90;;;;;;5049762;28;20232;-65
2023/08/30 06:21:16;;;;;;;16.67;16.10;;;15.40;99.90;;;;;;5049046;28;20203;-64
2023/08/30 06:23:43;;;;;;;14.37;13.87;;;15.40;99.90;;;;;;5067759;28;20199;-65
2023/08/30 06:26:09;;;;;;;13.63;13.20;;;15.40;99.90;;;;;;5069395;28;20199;-65
2023/08/30 06:28:36;;;;;;;14.63;14.03;;;15.50;99.90;;;;;;5070210;28;20233;-66
2023/08/30 06:31:03;;;;;;;14.20;13.70;;;15.60;99.90;;;;;;5069998;28;20226;-67
2023/08/30 06:33:30;;;;;;;13.13;12.63;;;15.70;99.90;;;;;;5070782;28;20550;-65
2023/08/30 06:35:58;;;;;;;13.13;12.63;;;15.60;99.90;;;;;;5070006;28;20199;-67
2023/08/30 06:38:25;;;;;;;13.10;12.63;;;15.60;99.90;;;;;;5070331;28;20876;-67
2023/08/30 06:40:52;;;;;;;13.33;12.90;;;15.70;99.90;;;;;;5069265;28;20283;-62
2023/08/30 06:43:19;;;;;;;12.30;11.90;;;15.80;99.90;;;;;;5070306;28;20207;-65
2023/08/30 06:45:46;;;;;;;11.37;10.97;;;15.80;99.90;;;;;;5070638;28;20646;-64
2023/08/30 06:48:13;;;;;;;11.87;11.47;;;15.90;99.90;;;;;;5070718;28;20219;-65
2023/08/30 06:50:40;;;;;;;12.70;12.20;;;15.90;99.90;;;;;;5070627;28;20227;-66
2023/08/30 06:53:10;;;;;;;11.70;11.30;;;16.00;99.90;;;;;;5069897;28;20229;-67
2023/08/30 06:55:37;;;;;;;12.13;11.73;;;16.00;99.90;;;;;;5071073;28;20203;-65
2023/08/30 06:58:04;;;;;;;11.80;11.40;;;16.20;99.90;;;;;;5069622;28;20314;-67
2023/08/30 07:00:31;;;;;;;11.93;11.53;;;16.10;99.90;;;;;;5068825;28;20200;-66
2023/08/30 07:02:59;;;;;;;11.63;11.13;;;16.20;99.90;;;;;;5068914;28;20215;-65
2023/08/30 07:05:26;;;;;;;12.03;11.63;;;16.30;99.90;;;;;;5070909;28;20611;-65
2023/08/30 07:07:58;;;;;;;11.97;11.57;;;16.40;99.90;;;;;;5070877;28;20231;-66
2023/08/30 07:10:26;;;;;;;12.03;11.60;;;16.40;99.90;;;;;;5076623;28;20218;-65
2023/08/30 07:12:53;;;;;;;11.97;11.57;;;16.50;99.90;;;;;;5073228;28;20674;-65
2023/08/30 07:15:20;;;;;;;13.37;12.90;;;16.60;99.90;;;;;;5074085;28;20239;-64
2023/08/30 07:17:46;;;;;;;12.77;12.37;;;16.60;99.90;;;;;;5073333;28;20227;-65
2023/08/30 07:20:13;;;;;;;13.30;12.87;;;16.70;99.90;;;;;;5073992;28;20683;-65
2023/08/30 07:22:40;;;;;;;13.93;13.33;;;16.80;99.90;;;;;;5074182;28;20210;-65
2023/08/30 07:25:10;;;;;;;13.90;13.40;;;16.90;99.90;;;;;;5076086;28;20203;-63
2023/08/30 07:27:38;;;;;;;13.43;13.00;;;16.90;99.90;;;;;;5081507;28;20227;-65
2023/08/30 07:30:07;;;;;;;13.77;13.27;;;17.00;99.90;;;;;;5076742;28;20577;-65
2023/08/30 07:32:35;;;;;;;12.83;12.43;;;17.00;99.90;;;;;;5074069;28;20717;-64
2023/08/30 07:35:02;;;;;;;12.40;12.00;;;17.10;99.90;;;;;;5073977;28;20207;-64
2023/08/30 07:37:29;;;;;;;12.23;11.83;;;17.10;99.90;;;;;;5072545;28;20226;-65
2023/08/30 07:39:56;;;;;;;12.43;12.03;;;17.20;99.90;;;;;;5073494;28;20210;-65
2023/08/30 07:42:22;;;;;;;11.77;11.37;;;17.20;99.90;;;;;;5091535;28;20199;-66
2023/08/30 07:44:51;;;;;;;12.20;11.80;;;17.30;99.90;;;;;;5101417;28;20920;-64
2023/08/30 07:47:17;;;;;;;11.57;11.17;;;17.40;99.90;;;;;;5093685;28;20219;-65
2023/08/30 07:49:45;;;;;;;11.40;11.00;;;17.50;99.90;;;;;;5095919;28;20213;-64
2023/08/30 07:52:12;;;;;;;10.87;10.47;;;17.60;99.90;;;;;;5094630;28;20237;-65
2023/08/30 07:54:41;;;;;;;10.43;10.10;;;17.80;99.90;;;;;;5093125;28;20219;-66
2023/08/30 07:57:08;;;;;;;10.60;10.20;;;17.90;99.90;;;;;;5059953;28;20585;-65
2023/08/30 07:59:35;;;;;;;10.23;9.93;;;18.10;99.90;;;;;;5053148;28;20212;-66
2023/08/30 08:02:06;;;;;;;10.33;10.03;;;18.30;99.90;;;;;;5054826;28;20200;-66
2023/08/30 08:04:33;;;;;;;10.63;10.23;;;18.40;99.90;;;;;;5056314;28;20252;-65
2023/08/30 08:07:00;;;;;;;10.40;10.10;;;18.50;99.90;;;;;;5066734;28;20262;-65
2023/08/30 08:09:27;;;;;;;11.53;11.13;;;18.60;99.90;;;;;;5053260;28;20252;-65
2023/08/30 08:11:55;;;;;;;11.70;11.20;;;18.80;99.90;;;;;;5052326;28;20343;-64
2023/08/30 08:14:22;;;;;;;10.97;10.57;;;18.80;99.90;;;;;;5052801;28;20204;-65
2023/08/30 08:16:49;;;;;;;10.77;10.37;;;18.90;99.90;;;;;;5051958;28;20322;-65
2023/08/30 08:19:17;;;;;;;10.40;10.10;;;19.00;99.90;;;;;;5052002;28;20214;-65
2023/08/30 08:21:44;;;;;;;10.57;10.23;;;19.20;99.90;;;;;;5054626;28;20204;-64
2023/08/30 08:24:11;;;;;;;11.27;10.87;;;19.30;99.90;;;;;;5063435;28;20678;-66
2023/08/30 08:26:38;;;;;;;11.17;10.77;;;19.30;99.90;;;;;;5059640;28;20744;-64
2023/08/30 08:29:05;;;;;;;11.50;11.10;;;19.40;99.90;;;;;;5056274;28;20203;-66
2023/08/30 08:31:31;;;;;;;11.90;11.50;;;19.50;99.90;;;;;;5057389;28;20293;-64
2023/08/30 08:34:10;;;;;;;10.90;10.50;;;19.60;99.90;;;;;;5054909;28;20200;-64
2023/08/30 08:36:39;;;;;;;10.40;10.10;;;19.60;99.90;;;;;;5052044;28;20215;-65
2023/08/30 08:39:06;;;;;;;11.10;10.70;;;19.70;99.90;;;;;;5053311;28;20218;-65
2023/08/30 08:41:39;;;;;;;10.70;10.30;;;19.80;99.90;;;;;;5052794;28;20226;-64
2023/08/30 08:44:07;;;;;;;10.17;9.87;;;19.90;99.90;;;;;;5052374;28;20720;-66
2023/08/30 08:46:35;;;;;;;10.40;10.00;;;20.00;99.90;;;;;;5051336;28;20204;-65
2023/08/30 08:49:08;;;;;;;10.03;9.73;;;20.10;99.90;;;;;;5051486;28;20208;-65
2023/08/30 08:51:36;;;;;;;10.53;10.13;;;20.10;99.90;;;;;;5051576;28;20208;-65
2023/08/30 08:54:05;;;;;;;10.97;10.57;;;20.20;99.90;;;;;;5051571;28;20191;-65
2023/08/30 08:56:33;;;;;;;10.55;10.18;;;20.30;99.90;;;;;;5050769;28;20204;-66
2023/08/30 08:59:00;;;;;;;11.77;11.37;;;20.60;99.90;;;;;;5061263;28;20244;-65
2023/08/30 09:01:28;;;;;;;11.57;11.17;;;20.60;99.90;;;;;;5076988;28;20195;-65
2023/08/30 09:03:55;;;;;;;11.77;11.38;;;20.60;99.90;;;;;;5071356;28;20211;-65
2023/08/30 09:06:22;;;;;;;11.38;10.98;;;20.70;99.90;;;;;;5072335;28;20241;-65
2023/08/30 09:08:49;;;;;;;10.30;9.95;;;20.80;99.90;;;;;;5071910;28;20219;-65
2023/08/30 09:11:17;;;;;;;10.20;9.90;;;21.00;99.90;;;;;;5071871;28;20762;-64
2023/08/30 09:13:45;;;;;;;10.63;10.32;;;20.80;99.90;;;;;;5072333;28;20213;-65
2023/08/30 09:16:15;;;;;;;10.87;10.47;;;20.60;99.90;;;;;;5071275;28;20596;-65
2023/08/30 09:18:42;;;;;;;10.55;10.23;;;20.40;99.90;;;;;;5076960;28;20242;-65
2023/08/30 09:21:09;;;;;;;10.93;10.52;;;20.20;99.90;;;;;;5090492;28;20212;-65
2023/08/30 09:23:37;;;;;;;10.67;10.27;;;20.20;99.90;;;;;;5091563;28;20207;-65
2023/08/30 09:26:04;;;;;;;10.77;10.37;;;20.00;99.90;;;;;;5090831;28;20598;-65
2023/08/30 09:28:42;;;;;;;10.23;9.93;;;20.00;99.90;;;;;;5090758;28;20226;-66
2023/08/30 09:31:17;;;;;;;10.97;10.57;;;20.10;99.90;;;;;;5089217;28;20220;-65
2023/08/30 09:33:47;;;;;;;10.35;10.05;;;20.10;99.90;;;;;;5090828;28;20480;-65
2023/08/30 09:36:14;;;;;;;14.00;13.50;;;19.90;99.90;;;;;;5090654;28;20198;-63
2023/08/30 09:38:41;;;;;;;10.02;9.73;;;19.90;99.90;;;;;;5072200;28;20230;-65
2023/08/30 09:41:08;;;;;;;10.90;10.50;;;20.10;99.90;;;;;;5050430;28;20203;-66
2023/08/30 09:43:36;;;;;;;9.90;9.60;;;20.10;99.90;;;;;;5050556;28;20184;-67
2023/08/30 09:46:05;;;;;;;10.03;9.73;;;20.20;99.90;;;;;;5050097;28;20674;-67
2023/08/30 09:48:33;;;;;;;10.13;9.82;;;20.40;99.90;;;;;;5050366;28;20602;-67
2023/08/30 09:51:03;;;;;;;11.10;10.70;;;20.50;99.90;;;;;;5050095;28;20698;-65
2023/08/30 09:53:33;;;;;;;10.27;9.97;;;20.60;99.90;;;;;;5050071;28;20665;-66
2023/08/30 09:56:01;;;;;;;10.63;10.23;;;20.50;99.90;;;;;;5050978;28;20619;-65
2023/08/30 09:58:29;;;;;;;10.80;10.40;;;20.60;99.90;;;;;;5050134;28;20259;-65
2023/08/30 10:00:59;;;;;;;10.70;10.30;;;20.60;99.90;;;;;;5049798;28;20211;-66
2023/08/30 10:03:26;;;;;;;10.18;9.88;;;20.60;99.90;;;;;;5050955;28;20184;-65
2023/08/30 10:05:55;;;;;;;9.95;9.65;;;20.60;99.90;;;;;;5051373;28;20199;-66
2023/08/30 10:08:22;;;;;;;10.40;10.10;;;20.70;99.90;;;;;;5051778;28;20234;-64
2023/08/30 10:10:51;;;;;;;10.00;9.70;;;20.80;99.90;;;;;;5055942;28;20215;-66
2023/08/30 10:13:19;;;;;;;9.90;9.47;;;20.90;99.90;;;;;;5057647;28;20227;-66
2023/08/30 10:15:49;;;;;;;10.07;9.77;;;20.80;99.90;;;;;;5050861;28;20230;-66
2023/08/30 10:18:22;;;;;;;9.93;9.63;;;20.90;99.90;;;;;;5052031;28;20751;-66
2023/08/30 10:20:54;;;;;;;9.60;9.30;;;20.90;99.90;;;;;;5050463;28;20222;-65
2023/08/30 10:23:22;;;;;;;9.90;9.60;;;21.00;99.90;;;;;;5050229;28;20185;-65
2023/08/30 10:25:51;;;;;;;10.65;10.25;;;21.20;99.90;;;;;;5050350;28;20208;-65
2023/08/30 10:28:19;;;;;;;9.77;9.48;;;21.40;99.90;;;;;;5050218;28;20266;-65
2023/08/30 10:30:46;;;;;;;9.82;9.52;;;21.60;99.90;;;;;;5049555;28;20295;-65
2023/08/30 10:33:14;;;;;;;9.77;9.48;;;21.70;99.90;;;;;;5049221;28;20230;-66
2023/08/30 10:35:51;;;;;;;9.90;9.60;;;21.80;99.90;;;;;;5052371;28;20204;-66
2023/08/30 10:38:27;;;;;;;10.45;10.05;;;21.90;99.90;;;;;;5053736;28;20646;-65
2023/08/30 10:40:54;;;;;;;11.00;10.60;;;22.10;99.90;;;;;;5050380;28;20205;-64
2023/08/30 10:43:30;;;;;;;10.95;10.55;;;22.20;99.90;;;;;;5052923;28;20204;-65
2023/08/30 10:46:02;;;;;;;11.30;10.90;;;22.20;99.90;;;;;;5054234;28;20207;-65
2023/08/30 10:48:39;;;;;;;12.67;12.27;;;22.50;99.90;;;;;;5053966;28;20314;-65
2023/08/30 10:51:20;;;;;;;18.13;17.52;;;22.70;99.90;;;;;;5053681;28;20203;-64
2023/08/30 10:53:56;;;;;;;14.30;13.80;;;22.90;99.90;;;;;;5053517;28;20226;-65
2023/08/30 10:56:28;;;;;;;15.65;15.15;;;23.00;99.90;;;;;;5053326;28;20188;-62
2023/08/30 10:58:55;;;;;;;17.23;16.63;;;23.00;99.90;;;;;;5053775;28;20212;-63
2023/08/30 11:01:23;;;;;;;17.75;17.13;;;22.90;99.90;;;;;;5053559;28;20218;-64
2023/08/30 11:03:51;;;;;;;18.00;17.37;;;22.80;99.90;;;;;;5053296;28;20204;-64
2023/08/30 11:06:21;;;;;;;20.70;19.90;;;22.70;99.90;;;;;;5052922;28;20214;-64
2023/08/30 11:08:49;;;;;;;15.93;15.32;;;22.40;99.90;;;;;;5052822;28;20713;-63
2023/08/30 11:11:16;;;;;;;19.50;18.80;;;22.30;99.90;;;;;;5053097;28;20212;-63
2023/08/30 11:13:43;;;;;;;20.05;19.35;;;22.50;99.90;;;;;;5053409;28;20224;-63
2023/08/30 11:16:09;;;;;;;15.10;14.60;;;22.70;99.90;;;;;;5057979;28;20231;-63
2023/08/30 11:18:41;;;;;;;21.00;20.20;;;22.90;99.90;;;;;;5073483;28;20727;-64
2023/08/30 11:21:09;;;;;;;15.00;14.50;;;22.90;99.90;;;;;;5072957;28;20207;-64
2023/08/30 11:23:37;;;;;;;20.47;19.77;;;22.90;99.90;;;;;;5074968;28;20234;-64
2023/08/30 11:26:04;;;;;;;15.23;14.73;;;23.10;99.90;;;;;;5074134;28;20213;-64
2023/08/30 11:28:31;;;;;;;15.27;14.68;;;23.00;99.90;;;;;;5075281;28;20313;-63
2023/08/30 11:30:59;;;;;;;17.38;16.77;;;23.30;99.90;;;;;;5072813;28;20241;-63
2023/08/30 11:33:26;;;;;;;19.87;19.17;;;23.30;99.90;;;;;;5073888;28;20295;-62
2023/08/30 11:35:53;;;;;;;17.45;16.85;;;23.40;99.90;;;;;;5073574;28;20306;-64
2023/08/30 11:38:21;;;;;;;14.18;13.68;;;23.60;99.90;;;;;;5073010;28;20594;-64
2023/08/30 11:40:52;;;;;;;15.53;15.03;;;23.50;99.90;;;;;;5073409;28;20714;-64
2023/08/30 11:43:19;;;;;;;15.65;15.15;;;23.60;99.90;;;;;;5074242;28;20184;-64
2023/08/30 11:45:46;;;;;;;11.82;11.43;;;23.40;99.90;;;;;;5073959;28;20199;-63
2023/08/30 11:48:13;;;;;;;17.00;16.40;;;23.70;99.90;;;;;;5073704;28;20722;-63
2023/08/30 11:50:42;;;;;;;23.27;22.33;;;23.90;99.90;;;;;;5075236;28;20211;-63
2023/08/30 11:53:09;;;;;;;16.27;15.67;;;23.50;99.90;;;;;;5072698;28;20219;-65
2023/08/30 11:55:36;;;;;;;15.35;14.80;;;23.50;99.90;;;;;;5072245;28;20206;-64
2023/08/30 11:58:04;;;;;;;12.45;11.95;;;23.70;99.90;;;;;;5073517;28;20223;-62
2023/08/30 12:00:35;;;;;;;16.33;15.73;;;23.60;99.90;;;;;;5072687;28;20294;-63
2023/08/30 12:03:02;;;;;;;15.05;14.55;;;23.70;99.90;;;;;;5073607;28;20188;-64
2023/08/30 12:05:33;;;;;;;13.35;12.93;;;23.70;99.90;;;;;;5082485;28;20298;-62
2023/08/30 12:08:00;;;;;;;15.80;15.30;;;23.70;99.90;;;;;;5080491;28;20231;-63
2023/08/30 12:10:31;;;;;;;14.40;13.90;;;23.90;99.90;;;;;;5083715;28;20615;-63
2023/08/30 12:12:58;;;;;;;12.53;12.13;;;23.80;99.90;;;;;;5073965;28;20250;-63
2023/08/30 12:15:27;;;;;;;16.35;15.75;;;23.70;99.90;;;;;;5072501;28;20214;-64
2023/08/30 12:17:55;;;;;;;15.30;14.80;;;23.80;99.90;;;;;;5072435;28;20235;-63
2023/08/30 12:20:23;;;;;;;43.92;41.67;;;23.80;99.90;;;;;;5072086;28;20244;-63
2023/08/30 12:22:51;;;;;;;12.45;12.05;;;23.70;99.90;;;;;;5071158;28;20287;-63
2023/08/30 12:25:19;;;;;;;14.73;14.23;;;23.70;99.90;;;;;;5072909;28;20233;-63
2023/08/30 12:27:46;;;;;;;14.97;14.47;;;23.60;99.90;;;;;;5072982;28;20310;-63
2023/08/30 12:30:13;;;;;;;17.27;16.67;;;23.70;99.90;;;;;;5073995;28;20254;-64
2023/08/30 12:32:42;;;;;;;14.10;13.60;;;23.70;99.90;;;;;;5092258;28;20218;-63